Terminal Aerodrome Forecast
Issued by NWS

Home | Current Version | Previous Version | Text Only | Print | Product List | Glossary On
Versions: 1 2 3 4 5 6 7 8 9 10 11 12 13 14 15 16 17 18 19 20 21 22
497
FTUS43 KGRR 240254 AAA
TAFJXN
TAF AMD
KJXN 240254Z 2403/2424 25008KT P6SM OVC009
     FM240500 25007KT P6SM OVC015
     FM242100 09010KT P6SM OVC025=

USA.gov is the U.S. government's official web portal to all federal, state and local government web resources and services.